createdAt,value
2022-08-19T00:01:32.612Z,9.57
2022-08-19T00:04:07.215Z,11.07
2022-08-19T00:06:36.115Z,9.85
2022-08-19T00:09:06.222Z,11.98
2022-08-19T00:11:47.911Z,13.05
2022-08-19T00:16:43.214Z,9.02
2022-08-19T00:19:10.591Z,15.90
2022-08-19T00:21:38.170Z,10.05
2022-08-19T00:24:05.561Z,10.23
2022-08-19T00:26:33.120Z,10.75
2022-08-19T00:29:00.608Z,8.82
2022-08-19T00:31:28.193Z,11.25
2022-08-19T00:33:55.539Z,11.32
2022-08-19T00:36:23.070Z,8.23
2022-08-19T00:38:50.496Z,10.23
2022-08-19T00:41:19.436Z,11.38
2022-08-19T00:43:58.048Z,9.10
2022-08-19T00:46:26.830Z,9.60
2022-08-19T00:48:55.517Z,16.02
2022-08-19T00:51:22.890Z,13.02
2022-08-19T00:53:50.279Z,10.25
2022-08-19T00:56:17.806Z,9.77
2022-08-19T00:58:45.342Z,10.68
2022-08-19T01:01:12.853Z,13.45
2022-08-19T01:03:56.993Z,8.43
2022-08-19T01:06:58.344Z,9.05
2022-08-19T01:09:26.317Z,11.38
2022-08-19T01:11:53.987Z,9.80
2022-08-19T01:14:21.315Z,12.43
2022-08-19T01:16:48.849Z,9.10
2022-08-19T01:19:28.726Z,10.63
2022-08-19T01:22:13.967Z,8.90
2022-08-19T01:24:49.494Z,13.07
2022-08-19T01:27:17.813Z,8.80
2022-08-19T01:29:45.557Z,9.35
2022-08-19T01:32:33.273Z,9.82
2022-08-19T01:35:04.067Z,10.32
2022-08-19T01:37:31.737Z,9.18
2022-08-19T01:39:59.289Z,10.27
2022-08-19T01:42:30.438Z,9.27
2022-08-19T01:44:58.067Z,9.35
2022-08-19T01:47:25.401Z,9.57
2022-08-19T01:49:52.869Z,10.10
2022-08-19T01:52:20.295Z,10.70
2022-08-19T01:54:47.661Z,9.50
2022-08-19T01:57:15.632Z,8.52
2022-08-19T01:59:43.502Z,10.82
2022-08-19T02:02:10.802Z,10.10
2022-08-19T02:04:39.292Z,9.20
2022-08-19T02:07:07.217Z,8.90
2022-08-19T02:09:34.738Z,9.85
2022-08-19T02:12:02.324Z,9.75
2022-08-19T02:14:29.639Z,11.40
2022-08-19T02:16:56.996Z,9.20
2022-08-19T02:19:24.464Z,9.77
2022-08-19T02:21:52.000Z,9.70
2022-08-19T02:24:19.353Z,9.85
2022-08-19T02:26:46.862Z,10.57
2022-08-19T02:29:14.121Z,9.02
2022-08-19T02:31:41.437Z,12.27
2022-08-19T02:34:08.985Z,9.82
2022-08-19T02:36:36.314Z,9.55
2022-08-19T02:39:10.425Z,9.65
2022-08-19T02:41:37.701Z,10.15
2022-08-19T02:44:28.839Z,11.00
2022-08-19T02:47:02.080Z,9.00
2022-08-19T02:49:29.366Z,10.38
2022-08-19T02:52:13.065Z,9.60
2022-08-19T02:54:40.316Z,10.52
2022-08-19T02:57:07.812Z,13.25
2022-08-19T02:59:35.089Z,10.88
2022-08-19T03:02:02.430Z,8.82
2022-08-19T03:04:30.022Z,11.05
2022-08-19T03:07:17.737Z,9.75
2022-08-19T03:09:45.588Z,10.50
2022-08-19T03:12:18.707Z,12.35
2022-08-19T03:14:46.216Z,9.23
2022-08-19T03:17:13.500Z,12.50
2022-08-19T03:19:40.977Z,12.45
2022-08-19T03:22:08.483Z,9.95
2022-08-19T03:24:36.111Z,13.48
2022-08-19T03:27:03.475Z,11.95
2022-08-19T03:29:31.775Z,11.00
2022-08-19T03:32:00.879Z,14.55
2022-08-19T03:34:29.732Z,10.70
2022-08-19T03:36:58.619Z,11.95
2022-08-19T03:39:26.748Z,11.65
2022-08-19T03:42:32.992Z,12.65
2022-08-19T03:44:42.201Z,13.75
2022-08-19T03:47:09.425Z,13.05
2022-08-19T03:49:36.789Z,12.63
2022-08-19T03:52:04.720Z,12.18
2022-08-19T03:54:32.038Z,15.30
2022-08-19T03:56:59.434Z,14.48
2022-08-19T03:59:29.324Z,12.75
2022-08-19T04:01:58.628Z,15.13
2022-08-19T04:04:28.934Z,15.65
2022-08-19T04:06:57.046Z,15.18
2022-08-19T04:09:24.687Z,14.63
2022-08-19T04:11:53.440Z,17.75
2022-08-19T04:14:22.486Z,15.25
2022-08-19T04:16:50.777Z,13.90
2022-08-19T04:19:18.939Z,15.48
2022-08-19T04:21:47.527Z,16.02
2022-08-19T04:24:15.555Z,14.35
2022-08-19T04:26:43.398Z,14.95
2022-08-19T04:29:13.030Z,15.35
2022-08-19T04:31:41.248Z,15.82
2022-08-19T04:34:10.047Z,16.85
2022-08-19T04:36:38.603Z,16.23
2022-08-19T04:39:14.014Z,21.20
2022-08-19T04:41:41.612Z,15.07
2022-08-19T04:44:08.983Z,18.73
2022-08-19T04:46:40.186Z,23.05
2022-08-19T04:49:10.492Z,16.63
2022-08-19T04:51:53.848Z,15.88
2022-08-19T04:54:37.278Z,13.35
2022-08-19T04:57:07.954Z,15.13
2022-08-19T04:59:36.271Z,14.88
2022-08-19T05:02:04.451Z,18.08
2022-08-19T05:04:31.786Z,15.98
2022-08-19T05:07:00.006Z,15.77
2022-08-19T05:09:42.151Z,17.73
2022-08-19T05:12:17.309Z,14.57
2022-08-19T05:14:44.881Z,18.73
2022-08-19T05:17:27.023Z,16.30
2022-08-19T05:19:55.865Z,18.38
2022-08-19T05:22:23.138Z,13.50
2022-08-19T05:25:11.312Z,17.95
2022-08-19T05:27:37.957Z,15.95
2022-08-19T05:30:05.963Z,15.32
2022-08-19T05:32:33.303Z,16.95
2022-08-19T05:35:00.797Z,17.85
2022-08-19T05:37:28.093Z,18.35
2022-08-19T05:39:56.020Z,22.25
2022-08-19T05:42:23.697Z,17.40
2022-08-19T05:44:51.731Z,17.20
2022-08-19T05:47:19.774Z,16.23
2022-08-19T05:49:47.549Z,14.20
2022-08-19T05:52:15.964Z,16.15
2022-08-19T05:54:46.493Z,17.35
2022-08-19T05:57:15.622Z,17.90
2022-08-19T05:59:43.100Z,14.18
2022-08-19T06:02:10.389Z,15.32
2022-08-19T06:04:37.855Z,14.57
2022-08-19T06:07:11.914Z,17.40
2022-08-19T06:09:40.786Z,16.17
2022-08-19T06:12:08.121Z,16.17
2022-08-19T06:14:40.162Z,13.25
2022-08-19T06:17:07.969Z,11.85
2022-08-19T06:19:41.066Z,16.02
2022-08-19T06:22:09.183Z,17.67
2022-08-19T06:24:36.490Z,17.17
2022-08-19T06:27:04.577Z,18.52
2022-08-19T06:29:32.169Z,13.20
2022-08-19T06:32:00.532Z,15.65
2022-08-19T06:34:28.973Z,19.30
2022-08-19T06:36:57.422Z,11.68
2022-08-19T06:39:26.108Z,13.43
2022-08-19T06:41:58.170Z,16.20
2022-08-19T06:44:27.497Z,10.80
2022-08-19T06:46:56.072Z,12.73
2022-08-19T06:49:24.254Z,12.63
2022-08-19T06:51:52.032Z,12.57
2022-08-19T06:54:20.152Z,11.25
2022-08-19T06:56:53.794Z,15.52
2022-08-19T06:59:22.684Z,12.05
2022-08-19T07:01:57.130Z,9.50
2022-08-19T07:04:26.574Z,14.43
2022-08-19T07:07:19.582Z,12.07
2022-08-19T07:09:58.251Z,13.68
2022-08-19T07:12:30.261Z,10.80
2022-08-19T07:14:58.451Z,9.63
2022-08-19T07:17:34.542Z,11.20
2022-08-19T07:20:05.633Z,13.38
2022-08-19T07:22:40.354Z,14.27
2022-08-19T07:25:09.415Z,9.48
2022-08-19T07:27:37.054Z,11.40
2022-08-19T07:30:04.969Z,12.98
2022-08-19T07:32:32.702Z,10.88
2022-08-19T07:35:00.052Z,8.88
2022-08-19T07:37:32.000Z,10.65
2022-08-19T07:40:01.392Z,9.80
2022-08-19T07:42:28.762Z,13.13
2022-08-19T07:44:56.025Z,13.35
2022-08-19T07:47:49.461Z,8.70
2022-08-19T07:50:11.085Z,11.30
2022-08-19T07:52:38.769Z,11.15
2022-08-19T07:55:07.682Z,10.35
2022-08-19T07:57:55.155Z,8.63
2022-08-19T08:00:24.496Z,13.95
2022-08-19T08:02:55.369Z,12.40
2022-08-19T08:05:24.290Z,8.32
2022-08-19T08:07:51.604Z,13.05
2022-08-19T08:10:20.635Z,8.32
2022-08-19T08:12:51.947Z,11.35
2022-08-19T08:15:41.360Z,12.27
2022-08-19T08:18:10.484Z,12.55
2022-08-19T08:20:37.808Z,8.70
2022-08-19T08:23:05.234Z,6.72
2022-08-19T08:25:34.359Z,10.77
2022-08-19T08:28:03.047Z,8.20
2022-08-19T08:30:31.005Z,7.82
2022-08-19T08:33:02.817Z,6.97
2022-08-19T08:35:30.232Z,10.00
2022-08-19T08:37:58.596Z,11.02
2022-08-19T08:40:28.845Z,7.18
2022-08-19T08:43:19.254Z,11.23
2022-08-19T08:45:53.483Z,8.30
2022-08-19T08:48:24.715Z,8.60
2022-08-19T08:50:54.191Z,11.15
2022-08-19T08:53:32.581Z,8.20
2022-08-19T08:56:03.464Z,13.00
2022-08-19T08:58:54.601Z,8.15
2022-08-19T09:01:37.717Z,9.95
2022-08-19T09:04:06.183Z,7.00
2022-08-19T09:06:33.766Z,10.45
2022-08-19T09:09:04.064Z,10.45
2022-08-19T09:11:50.812Z,11.40
2022-08-19T09:14:49.135Z,13.57
2022-08-19T09:17:14.264Z,10.48
2022-08-19T09:19:52.104Z,8.23
2022-08-19T09:22:25.597Z,15.88
2022-08-19T09:24:53.301Z,10.80
2022-08-19T09:27:43.714Z,8.75
2022-08-19T09:30:21.802Z,12.27
2022-08-19T09:32:56.138Z,9.77
2022-08-19T09:35:25.670Z,11.13
2022-08-19T09:37:57.650Z,11.48
2022-08-19T09:40:32.631Z,9.35
2022-08-19T09:43:09.918Z,11.55
2022-08-19T09:45:39.168Z,12.57
2022-08-19T09:48:06.798Z,8.15
2022-08-19T09:50:36.767Z,7.93
2022-08-19T09:53:04.224Z,8.52
2022-08-19T09:55:34.497Z,7.13
2022-08-19T09:58:02.185Z,8.27
2022-08-19T10:00:30.602Z,8.45
2022-08-19T10:02:58.099Z,9.13
2022-08-19T10:05:26.875Z,8.20
2022-08-19T10:07:56.747Z,8.77
2022-08-19T10:10:24.526Z,7.88
2022-08-19T10:12:52.805Z,6.85
2022-08-19T10:15:20.206Z,7.50
2022-08-19T10:17:56.983Z,6.63
2022-08-19T10:20:26.143Z,6.07
2022-08-19T10:22:53.505Z,6.75
2022-08-19T10:25:20.990Z,7.60
2022-08-19T10:27:52.988Z,9.00
2022-08-19T10:30:24.880Z,5.65
2022-08-19T10:32:52.424Z,7.90
2022-08-19T10:35:21.912Z,7.93
2022-08-19T10:37:57.531Z,6.53
2022-08-19T10:40:29.413Z,7.38
2022-08-19T10:42:57.852Z,10.43
2022-08-19T10:45:25.174Z,8.35
2022-08-19T10:47:54.566Z,5.70
2022-08-19T10:50:22.471Z,5.80
2022-08-19T10:52:58.546Z,7.93
2022-08-19T11:00:30.742Z,5.10
2022-08-19T11:03:04.105Z,5.05
2022-08-19T11:05:31.628Z,7.63
2022-08-19T11:11:21.619Z,5.15
2022-08-19T11:13:49.304Z,4.95
2022-08-19T11:16:18.431Z,7.28
2022-08-19T11:18:47.424Z,4.68
2022-08-19T11:21:24.833Z,5.97
2022-08-19T11:23:53.918Z,5.45
2022-08-19T11:26:22.149Z,5.95
2022-08-19T11:28:49.500Z,5.88
2022-08-19T11:31:24.973Z,6.47
2022-08-19T11:33:57.698Z,10.75
2022-08-19T11:36:25.206Z,5.82
2022-08-19T11:38:52.932Z,6.40
2022-08-19T11:41:21.049Z,8.73
2022-08-19T11:43:48.526Z,6.95
2022-08-19T11:46:16.678Z,5.07
2022-08-19T11:48:44.045Z,4.80
2022-08-19T11:51:15.590Z,6.97
2022-08-19T11:53:42.822Z,6.32
2022-08-19T11:56:10.159Z,3.70
2022-08-19T11:58:37.932Z,4.93
2022-08-19T12:01:15.510Z,5.47
2022-08-19T12:03:43.896Z,4.22
2022-08-19T12:06:17.047Z,4.65
2022-08-19T12:08:45.251Z,5.50
2022-08-19T12:11:14.111Z,4.22
2022-08-19T12:13:41.662Z,3.83
2022-08-19T12:16:09.968Z,5.47
2022-08-19T12:18:37.310Z,3.70
2022-08-19T12:21:04.728Z,4.80
2022-08-19T12:23:32.652Z,5.03
2022-08-19T12:25:59.985Z,10.93
2022-08-19T12:28:27.342Z,4.50
2022-08-19T12:30:54.884Z,5.95
2022-08-19T12:33:22.198Z,4.60
2022-08-19T12:35:49.553Z,6.60
2022-08-19T12:38:17.051Z,7.10
2022-08-19T12:40:47.830Z,4.97
2022-08-19T12:43:15.393Z,3.00
2022-08-19T12:45:44.332Z,5.07
2022-08-19T12:48:34.823Z,8.43
2022-08-19T12:51:10.250Z,14.25
2022-08-19T12:53:39.402Z,10.02
2022-08-19T12:56:11.523Z,5.88
2022-08-19T12:58:41.063Z,5.65
2022-08-19T13:01:17.581Z,6.63
2022-08-19T13:03:49.275Z,6.03
2022-08-19T13:06:19.414Z,6.30
2022-08-19T13:08:59.416Z,7.07
2022-08-19T13:11:27.271Z,6.15
2022-08-19T13:13:54.715Z,6.55
2022-08-19T13:16:22.145Z,6.00
2022-08-19T13:18:49.779Z,9.85
2022-08-19T13:21:17.029Z,7.43
2022-08-19T13:23:44.348Z,4.78
2022-08-19T13:26:12.444Z,5.13
2022-08-19T13:28:43.617Z,6.80
2022-08-19T13:31:11.074Z,4.18
2022-08-19T13:33:38.532Z,8.52
2022-08-19T13:36:06.007Z,5.53
2022-08-19T13:38:33.393Z,6.35
2022-08-19T13:41:09.948Z,4.25
2022-08-19T13:43:39.537Z,7.40
2022-08-19T13:46:09.671Z,8.20
2022-08-19T13:48:37.090Z,7.45
2022-08-19T13:51:05.779Z,7.90
2022-08-19T13:53:33.347Z,6.57
2022-08-19T13:56:00.757Z,6.18
2022-08-19T13:58:28.066Z,4.13
2022-08-19T14:00:55.663Z,4.72
2022-08-19T14:03:23.020Z,3.60
2022-08-19T14:05:51.746Z,4.55
2022-08-19T14:08:19.890Z,4.10
2022-08-19T14:10:47.415Z,4.78
2022-08-19T14:13:16.325Z,5.97
2022-08-19T14:15:44.322Z,5.55
2022-08-19T14:18:11.796Z,6.05
2022-08-19T14:20:39.102Z,8.88
2022-08-19T14:23:06.656Z,4.97
2022-08-19T14:25:34.177Z,5.45
2022-08-19T14:28:01.732Z,8.23
2022-08-19T14:30:30.566Z,7.72
2022-08-19T14:32:58.746Z,8.43
2022-08-19T14:35:26.599Z,5.15
2022-08-19T14:37:54.837Z,7.63
2022-08-19T14:40:23.343Z,6.68
2022-08-19T14:42:50.885Z,7.55
2022-08-19T14:45:18.490Z,13.23
2022-08-19T14:47:47.990Z,9.50
2022-08-19T14:50:17.799Z,6.90
2022-08-19T14:52:46.918Z,8.55
2022-08-19T14:55:15.194Z,4.60
2022-08-19T14:57:42.946Z,9.88
2022-08-19T15:00:11.214Z,7.75
2022-08-19T15:02:38.537Z,6.95
2022-08-19T15:05:06.263Z,5.35
2022-08-19T15:07:33.947Z,6.10
2022-08-19T15:10:01.312Z,6.60
2022-08-19T15:12:28.938Z,9.32
2022-08-19T15:14:56.395Z,7.53
2022-08-19T15:17:43.269Z,6.13
2022-08-19T15:20:13.355Z,7.65
2022-08-19T15:22:43.740Z,5.15
2022-08-19T15:25:12.330Z,5.43
2022-08-19T15:27:39.944Z,6.50
2022-08-19T15:30:11.328Z,6.00
2022-08-19T15:32:39.052Z,13.18
2022-08-19T15:35:09.530Z,9.82
2022-08-19T15:37:37.976Z,9.43
2022-08-19T15:40:06.705Z,10.65
2022-08-19T15:42:35.932Z,11.15
2022-08-19T15:45:04.781Z,12.30
2022-08-19T15:47:34.624Z,7.82
2022-08-19T15:50:10.772Z,10.65
2022-08-19T15:52:49.160Z,8.32
2022-08-19T15:55:31.353Z,13.13
2022-08-19T15:58:06.099Z,11.45
2022-08-19T16:00:35.273Z,11.80
2022-08-19T16:03:02.580Z,9.95
2022-08-19T16:05:30.542Z,11.88
2022-08-19T16:07:58.261Z,14.32
2022-08-19T16:10:28.027Z,11.48
2022-08-19T16:12:57.186Z,11.75
2022-08-19T16:15:36.637Z,16.67
2022-08-19T16:18:04.055Z,13.13
2022-08-19T16:20:31.666Z,12.32
2022-08-19T16:23:03.830Z,12.57
2022-08-19T16:25:36.135Z,15.85
2022-08-19T16:28:07.246Z,18.33
2022-08-19T16:30:38.803Z,13.68
2022-08-19T16:33:07.184Z,14.30
2022-08-19T16:35:37.854Z,16.25
2022-08-19T16:38:05.373Z,17.40
2022-08-19T16:40:33.337Z,14.40
2022-08-19T16:43:01.106Z,16.60
2022-08-19T16:45:28.909Z,14.85
2022-08-19T16:47:56.792Z,15.27
2022-08-19T16:50:45.797Z,12.85
2022-08-19T16:53:21.708Z,16.73
2022-08-19T16:55:51.977Z,15.55
2022-08-19T16:58:54.262Z,17.05
2022-08-19T17:01:21.730Z,16.45
2022-08-19T17:03:49.384Z,15.63
2022-08-19T17:06:20.530Z,14.93
2022-08-19T17:11:18.865Z,20.17
2022-08-19T17:13:47.730Z,15.48
2022-08-19T17:16:19.462Z,13.93
2022-08-19T17:18:55.623Z,18.75
2022-08-19T17:21:29.674Z,14.25
2022-08-19T17:23:57.726Z,15.27
2022-08-19T17:26:25.506Z,18.35
2022-08-19T17:28:56.754Z,16.73
2022-08-19T17:31:25.565Z,15.45
2022-08-19T17:33:52.839Z,17.10
2022-08-19T17:36:23.042Z,21.13
2022-08-19T17:38:50.918Z,17.27
2022-08-19T17:41:18.322Z,15.73
2022-08-19T17:43:45.750Z,14.80
2022-08-19T17:46:18.086Z,16.25
2022-08-19T17:48:51.110Z,16.05
2022-08-19T17:51:22.114Z,14.38
2022-08-19T17:53:50.561Z,15.68
2022-08-19T17:56:18.066Z,15.43
2022-08-19T17:58:54.420Z,13.80
2022-08-19T18:01:31.449Z,17.52
2022-08-19T18:04:16.673Z,12.38
2022-08-19T18:06:50.291Z,16.88
2022-08-19T18:09:23.654Z,14.60
2022-08-19T18:11:53.393Z,15.05
2022-08-19T18:14:22.841Z,14.98
2022-08-19T18:16:50.158Z,15.60
2022-08-19T18:19:18.510Z,18.35
2022-08-19T18:21:46.108Z,19.70
2022-08-19T18:24:13.608Z,15.25
2022-08-19T18:26:40.963Z,17.10
2022-08-19T18:29:08.613Z,14.55
2022-08-19T18:31:36.637Z,16.55
2022-08-19T18:34:04.122Z,15.13
2022-08-19T18:36:53.493Z,16.92
2022-08-19T18:39:21.516Z,15.00
2022-08-19T18:41:50.170Z,17.50
2022-08-19T18:44:17.475Z,17.40
2022-08-19T18:46:44.847Z,19.77
2022-08-19T18:49:14.535Z,18.85
2022-08-19T18:51:41.831Z,18.10
2022-08-19T18:54:09.128Z,21.98
2022-08-19T18:56:36.839Z,18.58
2022-08-19T18:59:04.169Z,17.42
2022-08-19T19:01:40.580Z,20.80
2022-08-19T19:04:13.886Z,19.90
2022-08-19T19:06:41.917Z,19.33
2022-08-19T19:09:14.383Z,18.60
2022-08-19T19:11:43.445Z,20.63
2022-08-19T19:14:19.280Z,18.88
2022-08-19T19:17:00.023Z,18.08
2022-08-19T19:19:27.537Z,24.77
2022-08-19T19:21:54.959Z,20.15
2022-08-19T19:24:24.508Z,18.33
2022-08-19T19:26:59.174Z,19.15
2022-08-19T19:29:27.616Z,17.40
2022-08-19T19:31:57.231Z,19.00
2022-08-19T19:34:29.299Z,19.88
2022-08-19T19:36:57.623Z,18.85
2022-08-19T19:39:30.643Z,20.17
2022-08-19T19:42:21.143Z,17.75
2022-08-19T19:44:52.840Z,17.73
2022-08-19T19:50:12.663Z,12.30
2022-08-19T19:52:45.121Z,8.68
2022-08-19T19:55:12.835Z,12.05
2022-08-19T19:57:40.376Z,9.38
2022-08-19T20:00:08.422Z,13.80
2022-08-19T20:02:37.061Z,10.93
2022-08-19T20:05:09.217Z,13.30
2022-08-19T20:07:38.818Z,10.45
2022-08-19T20:10:06.647Z,13.60
2022-08-19T20:12:34.551Z,11.90
2022-08-19T20:15:01.941Z,12.25
2022-08-19T20:17:29.540Z,14.10
2022-08-19T20:19:56.838Z,11.93
2022-08-19T20:22:24.419Z,13.57
2022-08-19T20:24:51.902Z,12.45
2022-08-19T20:27:19.323Z,17.40
2022-08-19T20:29:50.067Z,13.05
2022-08-19T20:32:19.608Z,13.27
2022-08-19T20:34:46.921Z,15.93
2022-08-19T20:37:14.567Z,11.43
2022-08-19T20:39:42.185Z,10.77
2022-08-19T20:42:17.159Z,11.88
2022-08-19T20:44:44.721Z,11.35
2022-08-19T20:47:13.036Z,16.73
2022-08-19T20:49:40.422Z,14.98
2022-08-19T20:52:07.921Z,11.43
2022-08-19T20:54:35.290Z,13.63
2022-08-19T20:57:02.616Z,10.50
2022-08-19T20:59:30.158Z,11.77
2022-08-19T21:01:59.782Z,13.85
2022-08-19T21:04:27.082Z,11.07
2022-08-19T21:06:54.708Z,11.70
2022-08-19T21:09:22.041Z,12.40
2022-08-19T21:11:49.384Z,14.20
2022-08-19T21:14:17.221Z,12.93
2022-08-19T21:16:44.577Z,15.18
2022-08-19T21:19:11.914Z,13.73
2022-08-19T21:21:39.465Z,13.43
2022-08-19T21:24:06.973Z,11.75
2022-08-19T21:26:34.306Z,9.90
2022-08-19T21:29:07.795Z,11.40
2022-08-19T21:31:36.285Z,14.15
2022-08-19T21:34:04.005Z,15.48
2022-08-19T21:36:31.462Z,16.33
2022-08-19T21:38:58.836Z,11.35
2022-08-19T21:41:26.333Z,13.18
2022-08-19T21:43:53.660Z,12.05
2022-08-19T21:46:21.130Z,13.80
2022-08-19T21:48:48.567Z,12.45
2022-08-19T21:51:15.971Z,12.93
2022-08-19T21:53:44.267Z,10.55
2022-08-19T21:56:12.885Z,11.85
2022-08-19T21:58:40.278Z,14.38
2022-08-19T22:01:07.780Z,11.88
2022-08-19T22:03:36.594Z,22.33
2022-08-19T22:06:04.281Z,13.00
2022-08-19T22:08:31.638Z,12.85
2022-08-19T22:10:59.075Z,11.50
2022-08-19T22:13:26.600Z,14.60
2022-08-19T22:15:54.088Z,13.45
2022-08-19T22:18:21.734Z,13.27
2022-08-19T22:20:49.005Z,14.07
2022-08-19T22:23:16.334Z,13.27
2022-08-19T22:25:45.085Z,12.70
2022-08-19T22:28:13.222Z,12.68
2022-08-19T22:30:42.422Z,13.30
2022-08-19T22:33:11.683Z,12.35
2022-08-19T22:35:39.821Z,14.02
2022-08-19T22:38:08.549Z,12.82
2022-08-19T22:40:37.197Z,15.00
2022-08-19T22:43:08.520Z,14.60
2022-08-19T22:45:35.986Z,15.95
2022-08-19T22:48:06.462Z,13.95
2022-08-19T22:50:34.159Z,11.13
2022-08-19T22:53:02.022Z,15.85
2022-08-19T22:55:30.596Z,16.27
2022-08-19T22:57:58.274Z,14.55
2022-08-19T23:00:26.576Z,15.40
2022-08-19T23:02:54.543Z,13.23
2022-08-19T23:05:22.715Z,15.30
2022-08-19T23:07:52.797Z,13.32
2022-08-19T23:10:26.690Z,11.68
2022-08-19T23:12:56.785Z,16.38
2022-08-19T23:15:25.505Z,17.58
2022-08-19T23:17:54.077Z,15.02
2022-08-19T23:20:22.218Z,16.33
2022-08-19T23:22:49.738Z,14.73
2022-08-19T23:25:19.633Z,15.75
2022-08-19T23:27:46.929Z,17.25
2022-08-19T23:30:14.654Z,15.40
2022-08-19T23:32:42.000Z,13.75
2022-08-19T23:35:09.291Z,14.48
2022-08-19T23:37:36.918Z,12.07
2022-08-19T23:40:05.235Z,13.93
2022-08-19T23:42:32.647Z,13.70
2022-08-19T23:45:01.339Z,14.18
2022-08-19T23:47:28.963Z,15.10
2022-08-19T23:49:57.025Z,14.55
2022-08-19T23:52:24.449Z,14.27
2022-08-19T23:54:51.840Z,16.80
2022-08-19T23:57:19.189Z,15.05
2022-08-19T23:59:46.701Z,12.85
